Terminal Aerodrome Forecast
Issued by NWS Sioux Falls, SD

Home | Current Version | Previous Version | Text Only | Print | Product List | Glossary Off
Versions: 1 2 3 4 5 6 7 8 9 10 11 12 13 14 15 16 17 18 19 20 21 22

380
FTUS43 KFSD 290327 AAA
TAFHON
TAF AMD
KHON 290327Z 2903/2924 05009KT P6SM BKN025 OVC035
     FM291000 VRB03KT P6SM OVC020
     FM291600 07009KT P6SM OVC035=

USA.gov is the U.S. government's official web portal to all federal, state and local government web resources and services.